Edwards Air Force Base
KEDW : now visible

Airfield :











YOU CAN JOIN US ON...

 
LOGIN :

Register | Disclaimer

   EN    FR    IT 

 









Legend :    VFR   Marginal VFR   IFR   Intensive IFR   Very Intensive IFR
Visi :
Ceiling :
>= 8 km
>= 3000ft
5 to 8 km
1000 to 3000 ft
1500m to 5 km
500 to 1000 ft
800 to 1500m
200 to 500 ft
< 800m
< 200 ft
Symbols :   Thunderstorms  Fog  Heavy snow  Heavy precipitations  Wind > 20 kt






- Airport Elevation : 2312 ft


KEDW - Edwards Air Force Base

CURRENT METAR :
  • 140858Z AUTO 24011KT 10SM CLR 22/04 A2989 RMK AO2 SLP093 T02230043 58003

EXPIRED METARs :
  • 140758Z AUTO 25014KT 10SM CLR 23/04 A2990 RMK AO2 SLP095 T02320042 403910232
  • 140658Z AUTO 25011KT 10SM CLR 24/06 A2990 RMK AO2 SLP095 T02390062

TAF AMD TAF KEDW
Valid from the 14 at 02:00 until the 15 at 03:00 UTC


140200Z 1402/1503 24020G30KT 9999 SKC 520009 QNH2984INS
BECMG 1403/1404 23015G25KT 9999 SKC 520009 QNH2984INS
BECMG 1405/1406 23012G18KT 9999 SKC 510009 QNH2988INS
BECMG 1410/1411 22012KT 9999 SKC QNH2986INS
BECMG 1414/1415 22012G18KT 9999 SKC 510008 QNH2988INS
BECMG 1417/1418 23015G25KT 9999 SKC 510008 QNH2989INS
BECMG 1419/1420 23020G30KT 9999 SKC 520009 QNH2988INS
BECMG 1422/1423 23025G35KT 9999 SKC 520009 QNH2984INS TX37/1423Z TN21/1413Z LAST NO AMDS AFT 1402 NEXT 1413
KZLA FIR / North America



MET'MAP, your aeronautical weather chart ! - Copyright ORBIFLY December 2007 - Disclaimer

ORBIFLY MET'MAP TEAM :

Programming & Development : Alexandra Zaïnal
Concept & original design : Baudouin d'Aumeries
Assistance for programming : Marc-Olivier Méhu
Technical & hardware support : Manuel Goepfert

Contact : metmap@orbifly.com




SOURCES & CREDITS :

   NOAA       Earth
Advisory